Time;durP1;ratioP1;P1;durP2;ratioP2;P2;SDS_P1;SDS_P2;PMS_P1;PMS_P2;Temp;Humidity;BMP_temperature;BMP_pressure;BME280_temperature;BME280_humidity;BME280_pressure;Samples;Min_cycle;Max_cycle;Signal;HPM_P1;HPM_P2
2023/12/01 00:01:23;;;;;;;25.58;14.43;;;;;;;1.28;53.50;99910.41;4959703;28;20413;-77
2023/12/01 00:03:52;;;;;;;29.10;15.18;;;;;;;1.28;53.43;99907.69;4946201;28;20049;-76
2023/12/01 00:06:20;;;;;;;30.35;14.40;;;;;;;1.26;53.22;99915.00;4960105;28;20389;-76
2023/12/01 00:08:48;;;;;;;28.25;15.02;;;;;;;1.27;53.22;99919.44;4966662;28;20388;-77
2023/12/01 00:11:16;;;;;;;28.45;14.38;;;;;;;1.27;53.44;99922.13;4938562;28;20988;-76
2023/12/01 00:13:44;;;;;;;26.98;14.02;;;;;;;1.27;53.31;99926.66;4938941;28;20061;-76
2023/12/01 00:16:13;;;;;;;30.38;15.75;;;;;;;1.27;53.21;99929.34;4956710;28;20097;-76
2023/12/01 00:18:43;;;;;;;28.23;14.82;;;;;;;1.26;53.33;99927.66;4936481;28;20491;-76
2023/12/01 00:21:11;;;;;;;31.55;15.80;;;;;;;1.24;53.62;99927.75;4949977;28;20586;-76
2023/12/01 00:23:39;;;;;;;27.58;14.00;;;;;;;1.25;53.36;99934.00;4963293;28;20488;-77
2023/12/01 00:26:08;;;;;;;30.52;15.50;;;;;;;1.25;53.32;99940.25;4961072;28;20050;-75
2023/12/01 00:28:37;;;;;;;27.63;14.23;;;;;;;1.26;53.45;99936.56;4949853;28;20040;-76
2023/12/01 00:31:06;;;;;;;30.65;14.90;;;;;;;1.27;53.35;99940.13;4938261;28;20039;-75
2023/12/01 00:33:35;;;;;;;28.42;15.18;;;;;;;1.29;53.25;99946.31;4956940;28;20039;-75
2023/12/01 00:36:04;;;;;;;29.10;14.63;;;;;;;1.28;53.23;99942.75;4944517;28;20062;-76
2023/12/01 00:38:32;;;;;;;29.05;14.70;;;;;;;1.27;53.27;99942.84;4943279;28;20070;-76
2023/12/01 00:41:00;;;;;;;30.27;14.45;;;;;;;1.28;53.28;99947.25;4937888;28;20130;-78
2023/12/01 00:43:28;;;;;;;28.70;14.38;;;;;;;1.27;53.23;99949.09;4948031;28;20085;-77
2023/12/01 00:45:56;;;;;;;29.73;14.60;;;;;;;1.28;53.28;99958.03;4954621;28;20078;-76
2023/12/01 00:48:24;;;;;;;29.42;14.00;;;;;;;1.28;53.77;99955.34;4959518;28;20465;-76
2023/12/01 00:50:54;;;;;;;26.42;14.23;;;;;;;1.30;53.48;99958.81;4946977;28;20134;-77
2023/12/01 00:53:22;;;;;;;27.52;14.32;;;;;;;1.31;53.68;99947.06;4957743;28;20129;-77
2023/12/01 00:55:50;;;;;;;28.10;14.68;;;;;;;1.32;53.75;99954.22;4954284;28;20242;-76
2023/12/01 00:58:18;;;;;;;28.08;14.43;;;;;;;1.34;53.67;99953.13;4958774;28;20218;-76
2023/12/01 01:00:46;;;;;;;28.33;14.63;;;;;;;1.35;53.59;99957.56;4944003;28;20043;-76
2023/12/01 01:03:14;;;;;;;30.23;15.82;;;;;;;1.37;53.53;99960.16;4939410;28;20330;-76
2023/12/01 01:05:43;;;;;;;29.52;14.68;;;;;;;1.38;53.49;99962.75;4938990;29;20520;-76
2023/12/01 01:08:12;;;;;;;27.00;13.65;;;;;;;1.40;53.44;99963.53;4936361;28;20374;-76
2023/12/01 01:10:40;;;;;;;31.55;15.02;;;;;;;1.39;53.51;99966.31;4937296;28;20098;-76
2023/12/01 01:13:08;;;;;;;28.20;14.20;;;;;;;1.40;53.08;99965.38;4946358;28;20038;-76
2023/12/01 01:15:36;;;;;;;27.27;14.45;;;;;;;1.41;53.25;99969.81;4954827;28;20050;-76
2023/12/01 01:18:06;;;;;;;30.20;14.45;;;;;;;1.39;53.18;99977.97;4933956;28;20412;-77
2023/12/01 01:20:34;;;;;;;31.52;15.05;;;;;;;1.39;53.06;99969.03;4943968;28;20126;-76
2023/12/01 01:23:02;;;;;;;28.73;15.20;;;;;;;1.38;53.00;99970.84;4949619;28;20047;-76
2023/12/01 01:25:32;;;;;;;30.70;14.30;;;;;;;1.38;52.70;99968.16;4958616;28;20098;-76
2023/12/01 01:28:00;;;;;;;25.35;13.20;;;;;;;1.37;52.81;99965.56;4935621;28;20516;-76
2023/12/01 01:30:28;;;;;;;28.38;13.57;;;;;;;1.36;52.68;99970.06;4955255;28;20035;-76
2023/12/01 01:32:56;;;;;;;27.00;13.20;;;;;;;1.35;52.70;99975.56;4956920;28;20047;-77
2023/12/01 01:35:25;;;;;;;27.42;14.05;;;;;;;1.35;52.68;99970.16;4959207;28;20046;-76
2023/12/01 01:37:57;;;;;;;29.05;13.30;;;;;;;1.36;52.48;99969.22;4937930;28;20055;-77
2023/12/01 01:40:29;;;;;;;29.77;14.15;;;;;;;1.33;52.71;99972.97;4943695;28;20117;-76
2023/12/01 01:42:59;;;;;;;26.92;14.00;;;;;;;1.33;52.27;99970.28;4950252;28;20043;-76
2023/12/01 01:45:30;;;;;;;26.70;13.15;;;;;;;1.31;52.41;99972.22;4949312;28;20066;-77
2023/12/01 01:47:59;;;;;;;26.48;13.93;;;;;;;1.32;52.25;99971.25;4959619;28;20512;-76
2023/12/01 01:50:27;;;;;;;26.13;12.70;;;;;;;1.31;52.24;99972.22;4938483;28;20075;-76
2023/12/01 01:52:56;;;;;;;27.48;14.55;;;;;;;1.30;52.23;99973.16;4943909;28;20442;-76
2023/12/01 01:55:25;;;;;;;26.80;13.43;;;;;;;1.30;52.14;99967.78;4945016;28;20050;-77
2023/12/01 01:57:56;;;;;;;26.67;13.73;;;;;;;1.29;52.01;99976.81;4952703;28;20424;-77
2023/12/01 02:00:26;;;;;;;25.42;14.25;;;;;;;1.28;52.10;99976.91;4946386;28;20508;-76
2023/12/01 02:02:55;;;;;;;27.83;14.63;;;;;;;1.26;52.14;99973.47;4952229;28;20043;-77
2023/12/01 02:05:23;;;;;;;27.27;14.05;;;;;;;1.26;52.15;99966.22;4938859;28;20129;-77
2023/12/01 02:07:51;;;;;;;29.40;14.63;;;;;;;1.25;52.24;99972.59;4952813;28;20059;-75
2023/12/01 02:10:20;;;;;;;29.15;14.07;;;;;;;1.25;52.16;99974.44;4949464;28;20062;-75
2023/12/01 02:12:51;;;;;;;24.25;12.77;;;;;;;1.25;52.40;99972.59;4941416;28;20039;-75
2023/12/01 02:15:19;;;;;;;25.05;13.32;;;;;;;1.24;52.20;99978.94;4946622;28;20062;-75
2023/12/01 02:17:49;;;;;;;29.15;14.45;;;;;;;1.26;51.94;99981.56;4957439;28;20043;-75
2023/12/01 02:20:17;;;;;;;30.70;15.00;;;;;;;1.24;52.08;99968.16;4952448;28;20412;-75
2023/12/01 02:22:46;;;;;;;29.25;15.10;;;;;;;1.26;51.76;99976.16;4946790;28;20043;-75
2023/12/01 02:25:15;;;;;;;29.40;14.45;;;;;;;1.24;51.98;99975.38;4960362;28;20122;-75
2023/12/01 02:27:43;;;;;;;28.42;14.82;;;;;;;1.22;51.85;99972.78;4961078;28;20086;-75
2023/12/01 02:30:12;;;;;;;31.48;15.85;;;;;;;1.22;51.76;99978.19;4938088;28;20133;-75
2023/12/01 02:32:40;;;;;;;29.73;15.07;;;;;;;1.20;51.70;99982.78;4955613;28;20095;-75
2023/12/01 02:35:09;;;;;;;30.98;15.82;;;;;;;1.20;51.68;99988.19;4945546;28;20134;-75
2023/12/01 02:37:38;;;;;;;32.17;14.65;;;;;;;1.18;51.64;99979.31;4957330;28;20510;-75
2023/12/01 02:40:15;;;;;;;34.75;16.65;;;;;;;1.18;51.32;99982.00;4945318;28;20039;-75
2023/12/01 02:42:48;;;;;;;30.90;15.88;;;;;;;1.18;51.19;99983.88;4963259;28;20042;-75
2023/12/01 02:45:16;;;;;;;32.38;15.18;;;;;;;1.15;51.72;99975.97;4946903;28;20050;-75
2023/12/01 02:47:45;;;;;;;32.35;15.77;;;;;;;1.14;51.76;99975.09;4954839;28;20486;-75
2023/12/01 02:50:13;;;;;;;28.42;14.80;;;;;;;1.14;51.77;99980.50;4947245;28;20460;-75
2023/12/01 02:52:42;;;;;;;34.78;16.02;;;;;;;1.15;51.64;99973.28;4939499;28;20357;-75
2023/12/01 02:55:12;;;;;;;32.60;16.38;;;;;;;1.14;51.61;99977.78;4951999;28;20050;-75
2023/12/01 02:57:40;;;;;;;32.33;15.55;;;;;;;1.15;51.67;99979.53;4957387;28;20459;-75
2023/12/01 03:00:13;;;;;;;34.17;16.92;;;;;;;1.15;51.62;99965.19;4963283;28;20228;-75
2023/12/01 03:02:41;;;;;;;32.03;16.38;;;;;;;1.13;51.76;99967.09;4962878;28;20102;-76
2023/12/01 03:05:10;;;;;;;38.92;18.25;;;;;;;1.14;51.68;99967.00;4954947;28;20492;-76
2023/12/01 03:07:39;;;;;;;38.47;17.83;;;;;;;1.15;51.61;99965.19;4958908;28;20047;-75
2023/12/01 03:10:08;;;;;;;32.72;17.15;;;;;;;1.14;51.60;99960.75;4945429;28;20042;-76
2023/12/01 03:12:38;;;;;;;39.38;17.83;;;;;;;1.14;51.50;99958.94;4961969;28;20765;-76
2023/12/01 03:15:09;;;;;;;33.80;16.45;;;;;;;1.15;51.37;99968.75;4961854;28;20047;-75
2023/12/01 03:17:38;;;;;;;39.08;19.00;;;;;;;1.14;51.62;99960.75;4958302;28;20293;-76
2023/12/01 03:20:10;;;;;;;32.45;17.05;;;;;;;1.15;51.58;99963.34;4959999;28;20143;-76
2023/12/01 03:22:40;;;;;;;34.42;17.13;;;;;;;1.14;51.54;99968.84;4953653;28;20055;-75
2023/12/01 03:25:11;;;;;;;35.22;16.13;;;;;;;1.15;51.83;99971.44;4960109;28;20130;-76
2023/12/01 03:27:42;;;;;;;33.53;15.85;;;;;;;1.17;51.49;99976.75;4948051;28;20086;-76
2023/12/01 03:30:14;;;;;;;32.65;16.50;;;;;;;1.17;51.54;99976.75;4947473;28;20053;-76
2023/12/01 03:32:45;;;;;;;33.05;16.00;;;;;;;1.15;51.54;99987.63;4948836;28;20538;-76
2023/12/01 03:35:14;;;;;;;35.00;17.13;;;;;;;1.16;51.44;99986.66;4964454;28;20059;-76
2023/12/01 03:37:43;;;;;;;35.22;17.35;;;;;;;1.16;51.36;99992.03;4960609;28;20177;-76
2023/12/01 03:40:13;;;;;;;42.42;18.75;;;;;;;1.15;51.38;99978.66;4943228;28;20421;-75
2023/12/01 03:42:44;;;;;;;39.42;17.48;;;;;;;1.17;51.09;99983.00;4938052;28;20047;-75
2023/12/01 03:45:14;;;;;;;33.97;16.10;;;;;;;1.14;51.35;99982.31;4959399;28;20074;-75
2023/12/01 03:47:43;;;;;;;35.40;17.13;;;;;;;1.14;51.11;99988.56;4950393;28;20043;-75
2023/12/01 03:50:12;;;;;;;40.45;19.60;;;;;;;1.14;51.26;99991.25;4938844;28;20122;-75
2023/12/01 03:52:42;;;;;;;35.45;17.00;;;;;;;1.13;51.06;100003.00;4936156;29;20416;-75
2023/12/01 03:55:11;;;;;;;37.63;18.08;;;;;;;1.12;51.27;99993.19;4946601;28;20051;-75
2023/12/01 03:57:40;;;;;;;32.92;16.25;;;;;;;1.12;51.14;100003.97;4941537;28;20134;-75
2023/12/01 04:00:14;;;;;;;37.95;17.33;;;;;;;1.12;50.89;100006.66;4961915;28;20089;-75
2023/12/01 04:02:44;;;;;;;34.45;16.45;;;;;;;1.10;51.15;100012.13;4964607;28;20050;-75
2023/12/01 04:05:17;;;;;;;37.22;17.42;;;;;;;1.11;51.29;100010.31;4956005;28;20133;-75
2023/12/01 04:07:51;;;;;;;38.92;16.83;;;;;;;1.09;51.30;100006.88;4965598;28;20766;-75
2023/12/01 04:10:23;;;;;;;39.33;16.98;;;;;;;1.09;51.21;100007.69;4947498;28;20043;-75
2023/12/01 04:12:52;;;;;;;42.97;18.98;;;;;;;1.08;51.26;100016.78;4942185;28;20513;-75
2023/12/01 04:15:24;;;;;;;39.78;18.40;;;;;;;1.10;51.16;100013.97;4958870;28;20039;-75
2023/12/01 04:17:53;;;;;;;38.45;16.63;;;;;;;1.07;51.37;100009.66;4959477;28;20062;-75
2023/12/01 04:20:25;;;;;;;38.72;18.77;;;;;;;1.08;51.24;100014.09;4940838;28;20050;-75
2023/12/01 04:22:56;;;;;;;36.70;17.88;;;;;;;1.09;51.33;100014.94;4954849;28;20094;-75
2023/12/01 04:25:25;;;;;;;36.85;18.00;;;;;;;1.07;51.32;100016.88;4945375;28;20046;-75
2023/12/01 04:27:54;;;;;;;34.33;17.13;;;;;;;1.07;51.10;100028.50;4938977;28;20047;-76
2023/12/01 04:30:24;;;;;;;34.17;16.42;;;;;;;1.07;51.04;100028.50;4947937;28;20173;-75
2023/12/01 04:32:54;;;;;;;34.22;16.65;;;;;;;1.07;51.36;100035.72;4951217;28;20058;-75
2023/12/01 04:35:25;;;;;;;36.77;17.13;;;;;;;1.06;51.39;100032.16;4951426;28;20130;-76
2023/12/01 04:37:54;;;;;;;36.25;16.20;;;;;;;1.08;51.32;100032.06;4955232;28;20150;-76
2023/12/01 04:40:22;;;;;;;35.95;16.83;;;;;;;1.08;51.22;100030.25;4962750;28;20305;-75
2023/12/01 04:42:52;;;;;;;34.85;16.70;;;;;;;1.09;51.31;100029.25;4941882;28;20050;-75
2023/12/01 04:45:21;;;;;;;33.85;15.95;;;;;;;1.11;51.36;100034.56;4964320;28;20038;-76
2023/12/01 04:47:51;;;;;;;34.85;16.40;;;;;;;1.12;51.20;100030.91;4949972;28;20059;-76
2023/12/01 04:50:21;;;;;;;31.45;15.30;;;;;;;1.13;51.26;100037.16;4956892;28;20039;-76
2023/12/01 04:52:52;;;;;;;31.75;15.48;;;;;;;1.14;51.45;100041.59;4964198;28;20043;-75
2023/12/01 04:55:22;;;;;;;32.95;15.43;;;;;;;1.16;51.36;100047.78;4937941;28;20535;-76
2023/12/01 04:57:50;;;;;;;32.67;15.27;;;;;;;1.15;51.46;100048.72;4940088;28;20062;-76
2023/12/01 05:00:20;;;;;;;33.08;14.95;;;;;;;1.16;51.29;100051.34;4964081;28;20040;-76
2023/12/01 05:02:51;;;;;;;30.83;15.50;;;;;;;1.16;51.48;100054.03;4954641;28;20464;-76
2023/12/01 05:05:20;;;;;;;31.45;14.88;;;;;;;1.17;51.26;100046.81;4955845;28;20045;-75
2023/12/01 05:07:50;;;;;;;31.85;14.13;;;;;;;1.17;51.34;100050.38;4941711;28;20575;-75
2023/12/01 05:10:19;;;;;;;30.23;15.15;;;;;;;1.18;51.07;100048.56;4959288;28;20070;-76
2023/12/01 05:12:50;;;;;;;29.08;14.02;;;;;;;1.19;51.05;100059.22;4958489;28;20445;-75
2023/12/01 05:15:19;;;;;;;30.55;14.10;;;;;;;1.17;51.24;100055.78;4960216;28;20108;-75
2023/12/01 05:17:49;;;;;;;25.75;12.98;;;;;;;1.19;51.23;100055.66;4949408;28;20146;-76
2023/12/01 05:20:20;;;;;;;25.95;13.23;;;;;;;1.18;50.83;100054.78;4940692;28;20071;-76
2023/12/01 05:22:49;;;;;;;25.85;12.55;;;;;;;1.18;51.07;100053.94;4964734;28;20047;-76
2023/12/01 05:25:18;;;;;;;27.17;12.90;;;;;;;1.17;51.15;100052.19;4966377;28;20134;-76
2023/12/01 05:27:47;;;;;;;30.48;13.77;;;;;;;1.17;51.03;100054.91;4964144;28;20102;-76
2023/12/01 05:30:16;;;;;;;29.80;14.18;;;;;;;1.17;51.24;100065.69;4963270;28;20044;-75
2023/12/01 05:32:46;;;;;;;24.95;12.38;;;;;;;1.17;51.24;100063.84;4943744;28;20066;-75
2023/12/01 05:35:15;;;;;;;24.25;12.70;;;;;;;1.18;51.14;100067.41;4961557;28;20038;-75
2023/12/01 05:37:47;;;;;;;24.05;13.07;;;;;;;1.18;50.77;100062.88;4958360;28;20062;-74
2023/12/01 05:40:16;;;;;;;26.30;12.70;;;;;;;1.16;51.31;100070.19;4969186;28;20042;-75
2023/12/01 05:42:45;;;;;;;23.35;11.23;;;;;;;1.17;50.92;100079.16;4964234;28;20088;-76
2023/12/01 05:45:16;;;;;;;24.48;12.02;;;;;;;1.18;50.70;100068.25;4950458;28;20043;-76
2023/12/01 05:47:45;;;;;;;24.08;11.60;;;;;;;1.18;50.85;100080.91;4961726;28;20424;-75
2023/12/01 05:50:15;;;;;;;21.52;11.02;;;;;;;1.17;51.08;100077.31;4939595;28;20069;-75
2023/12/01 05:52:45;;;;;;;20.08;10.75;;;;;;;1.17;51.36;100081.84;4959979;28;20413;-76
2023/12/01 05:55:17;;;;;;;21.88;10.98;;;;;;;1.18;51.10;100081.72;4959689;28;20043;-76
2023/12/01 05:57:50;;;;;;;22.33;10.90;;;;;;;1.18;51.32;100079.03;4962365;28;20098;-76
2023/12/01 06:00:21;;;;;;;23.20;10.85;;;;;;;1.19;51.10;100093.38;4963334;28;20337;-76
2023/12/01 06:02:50;;;;;;;22.58;10.88;;;;;;;1.19;51.17;100090.69;4964440;28;20071;-76
2023/12/01 06:05:19;;;;;;;19.75;10.73;;;;;;;1.21;51.17;100091.47;4956796;28;20043;-76
2023/12/01 06:07:52;;;;;;;21.73;10.85;;;;;;;1.22;50.88;100090.50;4942990;28;20089;-75
2023/12/01 06:10:21;;;;;;;21.35;10.63;;;;;;;1.19;51.30;100086.16;4946363;28;20133;-75
2023/12/01 06:12:49;;;;;;;21.45;10.75;;;;;;;1.21;50.99;100089.63;4964647;28;20053;-76
2023/12/01 06:15:19;;;;;;;22.70;10.80;;;;;;;1.22;50.93;100093.19;4961045;28;20043;-75
2023/12/01 06:17:48;;;;;;;21.20;10.63;;;;;;;1.22;50.81;100096.78;4937933;28;20125;-76
2023/12/01 06:20:18;;;;;;;20.33;10.75;;;;;;;1.23;50.83;100098.50;4962825;28;20055;-76
2023/12/01 06:22:49;;;;;;;19.45;10.73;;;;;;;1.23;50.91;100095.81;4959130;28;20054;-76
2023/12/01 06:25:18;;;;;;;20.50;11.40;;;;;;;1.24;51.09;100107.47;4960710;28;20051;-76
2023/12/01 06:27:47;;;;;;;21.60;10.55;;;;;;;1.23;51.02;100101.19;4947749;28;20069;-75
2023/12/01 06:30:16;;;;;;;21.13;11.02;;;;;;;1.24;51.00;100105.63;4959701;28;20040;-76
2023/12/01 06:32:45;;;;;;;23.25;11.07;;;;;;;1.25;50.94;100115.47;4957880;28;20413;-76
2023/12/01 06:35:15;;;;;;;22.27;10.20;;;;;;;1.26;50.88;100117.16;4955655;28;20038;-75
2023/12/01 06:37:44;;;;;;;20.45;11.32;;;;;;;1.26;50.95;100125.25;4941933;28;20043;-75
2023/12/01 06:40:20;;;;;;;23.08;10.70;;;;;;;1.25;50.72;100119.97;4956315;28;20512;-75
2023/12/01 06:42:50;;;;;;;19.03;9.70;;;;;;;1.25;50.90;100125.38;4961704;28;20066;-75
2023/12/01 06:45:21;;;;;;;19.42;9.82;;;;;;;1.25;50.63;100128.94;4959154;28;20049;-75
2023/12/01 06:47:53;;;;;;;21.02;10.27;;;;;;;1.25;50.57;100128.06;4963250;28;20105;-76
2023/12/01 06:50:23;;;;;;;20.90;10.00;;;;;;;1.25;50.47;100128.94;4960267;28;20062;-75
2023/12/01 06:52:52;;;;;;;20.92;10.40;;;;;;;1.24;50.39;100140.69;4943647;28;20098;-75
2023/12/01 06:55:22;;;;;;;17.90;9.93;;;;;;;1.24;50.30;100135.28;4964662;28;20049;-76
2023/12/01 06:57:50;;;;;;;19.48;10.18;;;;;;;1.22;50.38;100139.91;4954324;28;20106;-75
2023/12/01 07:00:29;;;;;;;20.05;9.57;;;;;;;1.22;50.37;100139.91;4946272;28;20547;-75
2023/12/01 07:03:01;;;;;;;19.90;9.93;;;;;;;1.20;50.31;100140.94;4946746;28;20134;-75
2023/12/01 07:05:31;;;;;;;20.80;10.32;;;;;;;1.20;50.20;100143.63;4952077;28;20043;-75
2023/12/01 07:08:01;;;;;;;19.08;9.75;;;;;;;1.19;50.47;100148.16;4944412;28;20173;-75
2023/12/01 07:10:32;;;;;;;19.23;10.05;;;;;;;1.19;50.20;100152.66;4946825;28;20051;-75
2023/12/01 07:13:00;;;;;;;19.02;10.32;;;;;;;1.16;50.42;100152.88;4965131;28;20065;-75
2023/12/01 07:15:29;;;;;;;19.70;9.75;;;;;;;1.14;50.33;100163.75;4940764;28;20128;-76
2023/12/01 07:17:58;;;;;;;20.88;9.93;;;;;;;1.14;50.31;100163.75;4957035;28;20126;-75
2023/12/01 07:20:26;;;;;;;19.27;10.55;;;;;;;1.12;50.31;100162.97;4954524;28;20337;-74
2023/12/01 07:22:54;;;;;;;17.70;9.38;;;;;;;1.11;50.26;100172.00;4955899;28;20501;-75
2023/12/01 07:25:23;;;;;;;20.00;9.63;;;;;;;1.10;50.31;100168.44;4949545;28;20081;-74
2023/12/01 07:27:59;;;;;;;17.40;9.73;;;;;;;1.11;50.14;100174.69;4959167;28;20039;-75
2023/12/01 07:30:28;;;;;;;17.58;9.10;;;;;;;1.09;50.48;100168.56;5035639;23;20103;-74
2023/12/01 07:32:57;;;;;;;16.35;9.05;;;;;;;1.08;50.30;100170.38;4950509;29;20043;-75
2023/12/01 07:35:25;;;;;;;14.07;8.05;;;;;;;1.08;50.45;100172.19;4936158;28;20047;-75
2023/12/01 07:37:53;;;;;;;16.08;8.70;;;;;;;1.06;50.19;100169.59;4951164;28;20043;-75
2023/12/01 07:40:23;;;;;;;17.40;7.80;;;;;;;1.06;50.06;100177.69;4945779;28;20555;-75
2023/12/01 07:42:56;;;;;;;13.65;7.25;;;;;;;1.07;50.05;100171.34;4928401;29;20224;-75
2023/12/01 07:45:25;;;;;;;12.98;7.40;;;;;;;1.05;50.14;100169.69;4930681;29;20523;-75
2023/12/01 07:47:55;;;;;;;17.17;8.38;;;;;;;1.05;50.20;100173.25;4948937;29;20055;-75
2023/12/01 07:50:25;;;;;;;14.80;7.90;;;;;;;1.04;50.27;100173.31;4946940;28;20048;-75
2023/12/01 07:52:55;;;;;;;16.23;8.07;;;;;;;1.04;50.23;100171.50;4932016;29;20150;-76
2023/12/01 07:55:24;;;;;;;13.55;7.78;;;;;;;1.03;50.11;100172.44;4943964;29;20051;-75
2023/12/01 07:57:52;;;;;;;15.15;7.57;;;;;;;1.03;50.28;100175.16;4928193;29;20043;-75
2023/12/01 08:00:21;;;;;;;13.68;7.82;;;;;;;1.04;50.23;100184.09;4950657;29;20471;-75
2023/12/01 08:02:51;;;;;;;14.38;6.93;;;;;;;1.04;50.37;100186.78;4945446;29;20155;-75
2023/12/01 08:05:22;;;;;;;15.88;8.00;;;;;;;1.01;50.57;100181.59;4929558;29;20052;-75
2023/12/01 08:07:52;;;;;;;17.77;8.30;;;;;;;1.02;50.42;100186.00;4947144;28;20075;-75
2023/12/01 08:10:24;;;;;;;15.85;8.98;;;;;;;1.00;50.60;100193.34;4932627;29;20041;-75
2023/12/01 08:12:56;;;;;;;14.15;7.93;;;;;;;1.00;50.52;100191.53;4950787;28;20475;-75
2023/12/01 08:15:27;;;;;;;17.25;8.25;;;;;;;0.99;50.19;100200.56;4932654;29;20043;-75
2023/12/01 08:17:57;;;;;;;17.63;8.90;;;;;;;0.99;50.50;100197.84;4930146;29;20055;-75
2023/12/01 08:20:28;;;;;;;15.68;8.60;;;;;;;0.98;50.39;100201.50;4945637;29;20054;-74
2023/12/01 08:22:57;;;;;;;16.42;8.30;;;;;;;0.98;50.13;100201.50;4931240;29;20050;-75
2023/12/01 08:25:25;;;;;;;17.15;9.18;;;;;;;0.98;50.33;100200.63;4950555;28;20071;-75
2023/12/01 08:27:54;;;;;;;15.52;8.70;;;;;;;0.96;50.42;100200.72;4949254;28;20126;-75
2023/12/01 08:30:22;;;;;;;14.82;7.55;;;;;;;0.96;50.58;100207.94;4945196;29;20039;-75
2023/12/01 08:32:55;;;;;;;17.52;8.93;;;;;;;0.94;50.33;100208.00;4947878;29;20042;-75
2023/12/01 08:35:24;;;;;;;16.30;8.63;;;;;;;0.95;50.33;100212.44;4930549;29;20504;-75
2023/12/01 08:37:53;;;;;;;17.67;8.95;;;;;;;0.94;50.28;100213.41;4946818;29;20742;-75
2023/12/01 08:40:21;;;;;;;16.10;8.80;;;;;;;0.95;50.46;100217.84;4931519;29;20131;-75
2023/12/01 08:42:53;;;;;;;15.60;8.20;;;;;;;0.94;50.18;100220.63;4949917;28;20043;-76
2023/12/01 08:45:21;;;;;;;14.25;7.80;;;;;;;0.95;50.12;100225.06;4946077;29;20051;-75
2023/12/01 08:47:51;;;;;;;15.25;8.15;;;;;;;0.93;49.83;100219.75;4931128;29;20150;-75
2023/12/01 08:50:21;;;;;;;13.90;7.63;;;;;;;0.94;50.01;100221.50;4944674;28;20468;-75
2023/12/01 08:52:49;;;;;;;15.88;8.80;;;;;;;0.92;49.98;100230.63;4930034;29;20412;-75
2023/12/01 08:55:17;;;;;;;14.90;8.02;;;;;;;0.92;49.99;100226.13;4930192;29;20106;-75
2023/12/01 08:57:45;;;;;;;17.00;8.05;;;;;;;0.92;49.99;100231.50;4944262;28;20090;-75
2023/12/01 09:00:18;;;;;;;18.52;8.50;;;;;;;0.91;49.98;100236.97;4930226;29;20047;-75
2023/12/01 09:02:46;;;;;;;18.90;8.60;;;;;;;0.88;50.01;100237.16;4949026;29;20055;-74
2023/12/01 09:05:17;;;;;;;21.63;9.43;;;;;;;0.86;50.08;100239.88;4946627;29;20496;-74
2023/12/01 09:07:50;;;;;;;18.80;9.50;;;;;;;0.87;50.01;100238.06;4946550;28;20051;-75
2023/12/01 09:10:19;;;;;;;16.40;9.20;;;;;;;0.83;50.16;100245.47;4929972;29;20043;-74
2023/12/01 09:12:49;;;;;;;19.10;9.88;;;;;;;0.82;50.14;100246.41;4947755;29;20047;-75
2023/12/01 09:15:17;;;;;;;18.48;9.48;;;;;;;0.81;49.96;100246.50;4945414;29;20076;-75
2023/12/01 09:17:45;;;;;;;15.30;8.30;;;;;;;0.79;50.07;100249.28;4949140;28;20098;-74
2023/12/01 09:20:13;;;;;;;18.85;9.50;;;;;;;0.78;50.06;100242.16;4942307;29;20583;-74
2023/12/01 09:22:41;;;;;;;16.02;8.50;;;;;;;0.77;50.13;100253.00;4947265;28;20043;-75
2023/12/01 09:25:11;;;;;;;14.98;8.30;;;;;;;0.76;49.87;100251.28;4946533;29;20052;-74
2023/12/01 09:27:39;;;;;;;15.80;8.25;;;;;;;0.73;49.90;100252.31;4947390;29;20047;-75
2023/12/01 09:30:13;;;;;;;15.75;8.95;;;;;;;0.71;49.96;100265.88;4946147;28;20035;-74
2023/12/01 09:32:41;;;;;;;15.48;8.65;;;;;;;0.67;49.95;100260.75;4948207;29;20051;-74
2023/12/01 09:35:10;;;;;;;13.00;7.35;;;;;;;0.64;49.89;100275.25;4948390;28;20481;-74
2023/12/01 09:37:38;;;;;;;14.30;7.53;;;;;;;0.63;49.93;100273.50;4927805;29;20417;-74
2023/12/01 09:40:07;;;;;;;13.70;7.53;;;;;;;0.61;49.72;100277.25;4944590;29;20039;-74
2023/12/01 09:42:39;;;;;;;14.25;7.82;;;;;;;0.60;49.48;100281.75;4924794;29;20472;-74
2023/12/01 09:45:10;;;;;;;14.53;7.90;;;;;;;0.54;49.73;100276.72;4945360;29;20071;-74
2023/12/01 09:47:45;;;;;;;13.27;7.78;;;;;;;0.54;49.32;100282.09;4941956;29;20054;-74
2023/12/01 09:50:14;;;;;;;13.13;7.32;;;;;;;0.51;49.77;100279.59;4940607;29;20039;-75
2023/12/01 09:52:42;;;;;;;12.60;7.07;;;;;;;0.50;49.88;100280.53;4949642;29;20047;-75
2023/12/01 09:55:11;;;;;;;11.52;6.63;;;;;;;0.52;49.70;100285.84;4932017;29;20063;-74
2023/12/01 09:57:42;;;;;;;12.45;6.60;;;;;;;0.50;49.43;100288.63;4946440;28;20071;-75
2023/12/01 10:00:11;;;;;;;12.80;6.88;;;;;;;0.49;49.78;100289.56;4950434;29;20047;-74
2023/12/01 10:02:40;;;;;;;13.40;7.22;;;;;;;0.48;49.75;100289.66;4952129;29;20591;-74
2023/12/01 10:05:11;;;;;;;11.82;6.70;;;;;;;0.48;49.75;100293.22;4949471;29;20453;-73
2023/12/01 10:07:39;;;;;;;13.45;7.03;;;;;;;0.49;49.68;100284.19;4947627;29;20058;-73
2023/12/01 10:10:19;;;;;;;11.55;6.65;;;;;;;0.53;48.87;100280.34;4934677;29;20035;-75
2023/12/01 10:12:57;;;;;;;10.80;5.75;;;;;;;0.55;48.97;100282.97;4950089;28;20095;-75
2023/12/01 10:15:26;;;;;;;9.65;5.47;;;;;;;0.50;49.74;100275.16;4948709;28;20039;-76
2023/12/01 10:17:55;;;;;;;11.27;6.15;;;;;;;0.51;49.42;100276.91;4931848;29;20055;-75
2023/12/01 10:20:24;;;;;;;10.05;6.00;;;;;;;0.50;49.64;100277.84;4929019;29;20055;-75
2023/12/01 10:22:55;;;;;;;11.40;6.35;;;;;;;0.52;49.80;100275.09;4930264;29;20055;-75
2023/12/01 10:25:22;;;;;;;11.50;6.28;;;;;;;0.51;49.77;100279.59;4929778;29;20043;-75
2023/12/01 10:27:56;;;;;;;12.25;6.68;;;;;;;0.53;49.23;100276.78;4951412;28;20043;-75
2023/12/01 10:30:23;;;;;;;11.27;6.75;;;;;;;0.52;49.86;100277.78;4950232;28;20050;-75
2023/12/01 10:32:53;;;;;;;11.93;6.07;;;;;;;0.52;49.73;100278.63;4932574;29;20141;-75
2023/12/01 10:35:21;;;;;;;12.00;6.80;;;;;;;0.51;49.86;100276.03;4932695;29;20213;-75
2023/12/01 10:37:49;;;;;;;11.55;6.43;;;;;;;0.53;49.61;100280.34;4949053;29;20078;-74
2023/12/01 10:40:17;;;;;;;9.13;5.80;;;;;;;0.54;49.64;100271.34;4947197;29;20464;-75
2023/12/01 10:42:48;;;;;;;10.13;5.93;;;;;;;0.55;49.06;100280.28;4945249;29;20131;-75
2023/12/01 10:45:19;;;;;;;10.10;5.93;;;;;;;0.54;49.46;100274.03;4932964;29;20094;-76
2023/12/01 10:47:48;;;;;;;12.30;6.38;;;;;;;0.54;49.56;100271.34;4951307;28;20051;-75
2023/12/01 10:50:17;;;;;;;11.18;6.40;;;;;;;0.55;49.54;100270.38;4949562;28;20054;-75
2023/12/01 10:52:47;;;;;;;11.55;6.85;;;;;;;0.57;49.53;100264.91;4952228;29;20047;-75
2023/12/01 10:55:15;;;;;;;10.82;5.95;;;;;;;0.56;49.61;100263.16;4934832;29;20081;-75
2023/12/01 10:57:45;;;;;;;10.98;6.47;;;;;;;0.58;49.33;100263.97;4951017;29;20147;-75
2023/12/01 11:00:29;;;;;;;10.98;6.78;;;;;;;0.58;49.28;100266.66;4950689;29;20039;-75
2023/12/01 11:03:03;;;;;;;11.35;6.20;;;;;;;0.57;49.16;100263.09;4949196;29;20077;-75
2023/12/01 11:05:34;;;;;;;13.32;7.20;;;;;;;0.58;49.60;100253.19;4951146;28;20047;-75
2023/12/01 11:08:21;;;;;;;12.55;6.88;;;;;;;0.59;48.74;100247.72;4946408;29;20043;-75
2023/12/01 11:10:58;;;;;;;14.35;7.50;;;;;;;0.60;48.98;100257.50;4945681;28;20062;-75
2023/12/01 11:13:36;;;;;;;13.85;7.50;;;;;;;0.59;48.97;100253.13;4948758;29;20043;-75
2023/12/01 11:16:07;;;;;;;13.68;7.20;;;;;;;0.58;49.34;100250.50;4949958;29;20520;-75
2023/12/01 11:18:37;;;;;;;14.27;7.80;;;;;;;0.59;49.63;100253.13;4923807;28;20188;-75
2023/12/01 11:21:05;;;;;;;15.77;8.20;;;;;;;0.58;49.37;100250.50;4931218;29;20042;-75
2023/12/01 11:23:34;;;;;;;16.45;8.25;;;;;;;0.58;49.54;100247.81;4931258;29;20528;-75
2023/12/01 11:26:08;;;;;;;17.30;8.73;;;;;;;0.59;49.04;100244.16;4947336;28;20551;-75
2023/12/01 11:28:53;;;;;;;17.45;9.05;;;;;;;0.57;49.53;100246.06;4945462;28;20055;-75
2023/12/01 11:31:28;;;;;;;17.10;9.10;;;;;;;0.55;49.75;100239.88;4930292;29;20040;-74
2023/12/01 11:33:58;;;;;;;18.08;9.95;;;;;;;0.56;49.32;100247.88;4947484;28;20051;-75
2023/12/01 11:36:31;;;;;;;19.17;10.15;;;;;;;0.56;49.56;100252.41;4933197;28;20051;-75